Aeroporto :
LOGIN :

Iscrizione | Disclaimer

   EN    FR    IT 

 










Sommario :    VFR   VFR Marginale   IFR   IFR Intensivo   IFR Molto Intensivo
Visibilità : 
Base nubi : 
>= 8 km
>= 3000ft
5 / 8 km
1000 / 3000 ft
1500m / 5 km
500 / 1000 ft
800 / 1500m
200 / 500 ft
< 800m
< 200 ft
Simboli :   Temporali  Nebbia  Neve Forte  Precipitazioni Forti  Vento > 20 kt
SIGMETs :   Varie  Temporali  Ghiacco  Turbolenza  Onda orograficha  Ceneri Vulcaniche







- Altitudine del aeroporto : 247 ft
- Codice IATA : BLL


EKBI - Billund

ULTIMO METAR :
  • 220950Z AUTO 18009KT 150V210 9999 -RA BKN011/// OVC035/// 16/15 Q1019

METARs OBSOLETI :
  • 220920Z AUTO 17007KT 9999 -RA OVC061/// 15/14 Q1020
  • 220850Z AUTO 18008KT 150V210 9999 -RA OVC048/// 15/14 Q1020
  • 220820Z AUTO 19007KT 160V220 9999 -RA OVC062/// 15/13 Q1020
  • 220750Z AUTO 20007KT 170V230 9999 -RA OVC079/// 15/14 Q1020
  • 220720Z AUTO 20008KT 160V230 9999 -RA OVC085/// 15/13 Q1020

TAF AMD TAF EKBI
Valido dal 22 a 09 ore il 23 a 06 ore UTC


220955Z 2209/2306 21008KT 9999 SCT020
TEMPO 2210/2214 BKN008
BECMG 2214/2216 2500 BR RADZ BKN006
BECMG 2216/2218 6000 NSW BKN020
TEMPO 2218/2222 2500 BR
BECMG 2222/2224 2500 BR
PROB40 2302/2306 0500 FG VV002
Nessun NOTAM noto per questo aeroporto.



MetMap, La meteo Aeronautica in un colpo d'occhio ! - Copyright ORBIFLY Dicembre 2007 - Disclaimer

ORBIFLY MET'MAP TEAM :

Programmazione e sviluppo : Alexandra Zaïnal
Concezione e sviluppo : Baudouin d'Aumeries
Co-Programmazione e sviluppo : Marc-Olivier Méhu
Supporto tecnico e logistico : Manuel Goepfert
Aiuto per la traduzione : Arnaldo La Scala

Contatto : metmap@orbifly.com




FONTI E CREDITI :

   NOAA